Time;durP1;ratioP1;P1;durP2;ratioP2;P2;SDS_P1;SDS_P2;PMS_P1;PMS_P2;Temp;Humidity;BMP_temperature;BMP_pressure;BME280_temperature;BME280_humidity;BME280_pressure;Samples;Min_cycle;Max_cycle;Signal;HPM_P1;HPM_P2
2023/01/08 00:00:02;;;;;;;3.05;1.30;;;10.10;99.90;;;;;;5035475;28;20331;-79
2023/01/08 00:02:38;;;;;;;1.55;1.13;;;10.20;99.90;;;;;;5020977;28;20317;-79
2023/01/08 00:05:05;;;;;;;1.75;1.00;;;10.10;99.90;;;;;;5035182;28;20393;-79
2023/01/08 00:07:31;;;;;;;2.42;1.60;;;10.10;99.90;;;;;;5028468;28;20037;-81
2023/01/08 00:09:58;;;;;;;2.55;1.00;;;10.10;99.90;;;;;;5029094;28;20042;-81
2023/01/08 00:12:24;;;;;;;2.85;1.40;;;10.20;99.90;;;;;;5016541;28;20126;-80
2023/01/08 00:14:50;;;;;;;2.00;1.38;;;10.10;99.90;;;;;;5030976;28;20060;-79
2023/01/08 00:17:16;;;;;;;2.80;1.50;;;10.20;99.90;;;;;;5030399;28;20048;-82
2023/01/08 00:19:43;;;;;;;2.70;1.35;;;10.20;99.90;;;;;;5031725;28;20491;-80
2023/01/08 00:22:09;;;;;;;2.97;1.42;;;10.20;99.90;;;;;;5002696;28;20045;-80
2023/01/08 00:24:35;;;;;;;3.47;1.23;;;10.20;99.90;;;;;;5021513;28;20033;-79
2023/01/08 00:27:02;;;;;;;3.53;2.03;;;10.20;99.90;;;;;;5015903;28;20955;-80
2023/01/08 00:29:28;;;;;;;3.83;1.45;;;10.20;99.90;;;;;;5017511;28;20512;-81
2023/01/08 00:31:54;;;;;;;2.70;1.30;;;10.20;99.90;;;;;;5016746;28;20033;-81
2023/01/08 00:34:21;;;;;;;4.25;1.73;;;10.20;99.90;;;;;;5027714;28;20041;-81
2023/01/08 00:36:47;;;;;;;3.08;1.52;;;10.20;99.90;;;;;;5032084;28;20039;-79
2023/01/08 00:39:13;;;;;;;3.78;1.73;;;10.20;99.90;;;;;;5020935;28;20049;-81
2023/01/08 00:41:43;;;;;;;3.13;1.10;;;10.20;99.90;;;;;;5018940;28;20033;-81
2023/01/08 00:44:09;;;;;;;3.45;1.20;;;10.20;99.90;;;;;;5001983;28;20037;-81
2023/01/08 00:46:35;;;;;;;2.72;1.33;;;10.20;99.90;;;;;;5030436;28;20048;-80
2023/01/08 00:49:01;;;;;;;4.70;1.42;;;10.20;99.90;;;;;;5024021;28;20052;-80
2023/01/08 00:51:28;;;;;;;3.67;1.13;;;10.20;99.90;;;;;;5031080;28;20037;-80
2023/01/08 00:53:54;;;;;;;2.70;1.52;;;10.20;99.90;;;;;;5020165;28;20034;-81
2023/01/08 00:56:20;;;;;;;3.92;1.42;;;10.30;99.90;;;;;;5017651;28;20044;-80
2023/01/08 00:58:46;;;;;;;3.35;1.45;;;10.30;99.90;;;;;;5000011;28;20041;-79
2023/01/08 01:01:14;;;;;;;4.07;1.52;;;10.20;99.90;;;;;;5011763;28;20038;-80
2023/01/08 01:03:41;;;;;;;2.72;1.30;;;10.30;99.90;;;;;;5031265;28;20048;-81
2023/01/08 01:06:09;;;;;;;2.50;1.40;;;10.30;99.90;;;;;;5029893;28;20041;-79
2023/01/08 01:08:35;;;;;;;3.95;1.30;;;10.30;99.90;;;;;;5038009;28;20056;-80
2023/01/08 01:11:07;;;;;;;3.42;1.45;;;10.30;99.90;;;;;;5011147;28;20049;-80
2023/01/08 01:13:33;;;;;;;4.10;1.25;;;10.30;99.90;;;;;;5027497;28;20041;-80
2023/01/08 01:16:01;;;;;;;4.10;1.65;;;10.30;99.90;;;;;;5020401;28;20036;-80
2023/01/08 01:18:28;;;;;;;2.97;1.25;;;10.30;99.90;;;;;;5014709;28;20065;-82
2023/01/08 01:20:54;;;;;;;3.50;1.10;;;10.30;99.90;;;;;;5011780;28;20041;-81
2023/01/08 01:23:20;;;;;;;3.28;1.42;;;10.30;99.90;;;;;;5028932;28;20053;-80
2023/01/08 01:25:47;;;;;;;3.17;1.40;;;10.30;99.90;;;;;;5028463;28;20032;-80
2023/01/08 01:28:14;;;;;;;2.50;1.10;;;10.30;99.90;;;;;;5026774;28;20048;-80
2023/01/08 01:30:40;;;;;;;2.90;1.02;;;10.30;99.90;;;;;;5011029;28;20037;-80
2023/01/08 01:33:06;;;;;;;3.22;1.70;;;10.30;99.90;;;;;;5014478;28;20049;-79
2023/01/08 01:35:33;;;;;;;4.15;1.30;;;10.30;99.90;;;;;;5025724;28;20300;-79
2023/01/08 01:37:59;;;;;;;3.22;1.35;;;10.30;99.90;;;;;;5027357;28;20052;-81
2023/01/08 01:40:25;;;;;;;3.30;1.42;;;10.30;99.90;;;;;;5013659;28;20036;-81
2023/01/08 01:42:51;;;;;;;3.95;1.67;;;10.30;99.90;;;;;;5034998;28;20033;-78
2023/01/08 01:45:23;;;;;;;2.78;1.25;;;10.30;99.90;;;;;;5004923;28;20036;-82
2023/01/08 01:47:56;;;;;;;3.95;1.35;;;10.20;99.90;;;;;;5028091;28;20455;-81
2023/01/08 01:50:30;;;;;;;3.72;1.45;;;10.20;99.90;;;;;;5027108;28;20064;-81
2023/01/08 01:53:19;;;;;;;2.30;1.33;;;10.20;99.90;;;;;;5031607;28;20049;-80
2023/01/08 01:55:47;;;;;;;5.07;1.58;;;10.10;99.90;;;;;;5036144;28;20037;-81
2023/01/08 01:58:15;;;;;;;3.35;1.63;;;10.10;99.90;;;;;;5029461;28;20056;-81
2023/01/08 02:00:42;;;;;;;3.97;2.00;;;10.10;99.90;;;;;;5011979;28;20037;-82
2023/01/08 02:03:10;;;;;;;3.08;1.50;;;10.00;99.90;;;;;;5023800;28;20037;-79
2023/01/08 02:05:54;;;;;;;3.38;1.65;;;10.00;99.90;;;;;;5011060;28;20496;-80
2023/01/08 02:08:31;;;;;;;3.80;1.52;;;10.00;99.90;;;;;;5013918;28;20053;-80
2023/01/08 02:11:17;;;;;;;5.88;2.08;;;10.00;99.90;;;;;;5025042;28;20033;-78
2023/01/08 02:13:54;;;;;;;5.40;1.33;;;10.00;99.90;;;;;;5022114;28;20059;-81
2023/01/08 02:16:47;;;;;;;4.28;1.85;;;10.00;99.90;;;;;;5040431;28;20029;-81
2023/01/08 02:19:23;;;;;;;4.68;1.70;;;10.00;99.90;;;;;;5030466;28;20052;-79
2023/01/08 02:21:55;;;;;;;3.75;1.50;;;10.00;99.90;;;;;;5031793;28;20037;-80
2023/01/08 02:24:38;;;;;;;4.00;1.58;;;10.00;99.90;;;;;;5044844;28;20472;-81
2023/01/08 02:27:07;;;;;;;4.60;1.52;;;10.00;99.90;;;;;;5032133;28;20036;-80
2023/01/08 02:29:34;;;;;;;4.03;1.55;;;10.00;99.90;;;;;;5035217;28;20048;-81
2023/01/08 02:32:01;;;;;;;3.78;1.40;;;10.00;99.90;;;;;;5031580;28;20036;-81
2023/01/08 02:34:27;;;;;;;3.78;1.52;;;10.10;99.90;;;;;;5007764;28;20048;-82
2023/01/08 02:36:55;;;;;;;4.10;1.48;;;10.10;99.90;;;;;;5016391;28;20483;-81
2023/01/08 02:39:59;;;;;;;7.40;1.77;;;10.10;99.90;;;;;;5042099;28;20028;-80
2023/01/08 02:42:39;;;;;;;3.55;1.20;;;10.10;99.90;;;;;;5031593;28;20037;-82
2023/01/08 02:45:19;;;;;;;3.47;1.00;;;10.10;99.90;;;;;;5007461;28;20399;-82
2023/01/08 02:48:01;;;;;;;4.13;1.40;;;10.10;99.90;;;;;;5039622;28;20044;-81
2023/01/08 02:50:34;;;;;;;4.50;1.50;;;10.10;99.90;;;;;;5017532;28;20041;-82
2023/01/08 02:53:09;;;;;;;2.95;1.60;;;10.10;99.90;;;;;;5027896;28;20037;-81
2023/01/08 02:55:38;;;;;;;3.92;1.55;;;10.10;99.90;;;;;;5032575;28;20469;-82
2023/01/08 02:58:05;;;;;;;5.32;1.63;;;10.10;99.90;;;;;;5026533;28;20041;-80
2023/01/08 03:00:31;;;;;;;3.47;1.00;;;10.10;99.90;;;;;;5028718;28;20046;-85
2023/01/08 03:03:19;;;;;;;3.92;1.10;;;10.00;99.90;;;;;;5029866;28;20039;-83
2023/01/08 03:05:49;;;;;;;5.15;1.67;;;10.00;99.90;;;;;;5032227;28;20033;-84
2023/01/08 03:08:18;;;;;;;6.75;1.60;;;9.90;99.90;;;;;;5034765;28;20080;-85
2023/01/08 03:10:51;;;;;;;4.53;1.00;;;9.80;99.90;;;;;;5030157;28;20050;-81
2023/01/08 03:13:26;;;;;;;3.92;1.23;;;9.80;99.90;;;;;;5013497;28;20602;-77
2023/01/08 03:15:57;;;;;;;2.25;0.70;;;9.70;99.90;;;;;;5040702;28;20041;-82
2023/01/08 03:18:34;;;;;;;6.38;1.00;;;9.60;99.90;;;;;;5026836;28;20061;-83
2023/01/08 03:21:04;;;;;;;5.47;1.00;;;9.50;99.90;;;;;;5015140;28;20045;-83
2023/01/08 03:23:33;;;;;;;4.43;0.75;;;9.50;99.90;;;;;;5005859;28;20045;-81
2023/01/08 03:26:01;;;;;;;2.60;0.70;;;9.40;99.90;;;;;;5030961;28;20040;-83
2023/01/08 03:28:36;;;;;;;3.42;0.75;;;9.30;99.90;;;;;;5035477;28;20040;-81
2023/01/08 03:31:03;;;;;;;1.92;0.40;;;9.30;99.90;;;;;;5032338;28;20304;-83
2023/01/08 03:33:31;;;;;;;3.72;0.50;;;9.20;99.90;;;;;;5035092;28;20029;-82
2023/01/08 03:35:59;;;;;;;1.73;0.50;;;9.20;99.90;;;;;;5042518;28;20052;-84
2023/01/08 03:38:31;;;;;;;3.58;0.52;;;9.10;99.90;;;;;;5035268;28;20040;-83
2023/01/08 03:41:07;;;;;;;3.67;0.50;;;9.10;99.90;;;;;;5029621;28;20039;-81
2023/01/08 03:43:33;;;;;;;2.90;0.40;;;9.00;99.90;;;;;;5024609;28;21905;-83
2023/01/08 03:46:04;;;;;;;2.45;0.47;;;9.00;99.90;;;;;;5032147;28;20041;-81
2023/01/08 03:48:34;;;;;;;3.05;0.63;;;8.90;99.90;;;;;;5015791;28;20496;-81
2023/01/08 03:51:00;;;;;;;3.40;0.50;;;8.90;99.90;;;;;;5029392;28;20041;-81
2023/01/08 03:53:27;;;;;;;2.60;0.47;;;8.90;99.90;;;;;;5008888;28;20044;-83
2023/01/08 03:55:54;;;;;;;3.08;0.40;;;8.90;99.90;;;;;;5031940;28;20033;-81
2023/01/08 03:58:20;;;;;;;3.42;0.85;;;8.90;99.90;;;;;;5028885;28;20033;-80
2023/01/08 04:00:46;;;;;;;3.50;0.45;;;8.80;99.90;;;;;;5033235;28;20048;-80
2023/01/08 04:03:12;;;;;;;5.15;0.50;;;8.80;99.90;;;;;;5027632;28;20037;-77
2023/01/08 04:05:39;;;;;;;4.00;0.40;;;8.80;99.90;;;;;;5018260;28;20048;-80
2023/01/08 04:08:05;;;;;;;2.85;0.55;;;8.70;99.90;;;;;;5029404;28;20041;-81
2023/01/08 04:10:31;;;;;;;2.13;0.30;;;8.70;99.90;;;;;;5008104;28;20064;-82
2023/01/08 04:12:57;;;;;;;3.83;0.55;;;8.70;99.90;;;;;;5032197;28;20045;-81
2023/01/08 04:15:24;;;;;;;6.35;0.60;;;8.70;99.90;;;;;;5019218;28;20029;-80
2023/01/08 04:17:50;;;;;;;2.20;0.40;;;8.70;99.90;;;;;;5044648;28;20056;-83
2023/01/08 04:20:16;;;;;;;2.53;0.30;;;8.60;99.90;;;;;;5036694;28;20156;-81
2023/01/08 04:22:43;;;;;;;4.20;0.57;;;8.60;99.90;;;;;;5034063;28;20049;-80
2023/01/08 04:25:10;;;;;;;2.58;0.30;;;8.60;99.90;;;;;;5022327;28;20400;-82
2023/01/08 04:27:36;;;;;;;2.33;0.50;;;8.60;99.90;;;;;;5046709;28;20036;-80
2023/01/08 04:30:03;;;;;;;2.92;0.50;;;8.60;99.90;;;;;;5036931;28;20072;-82
2023/01/08 04:32:29;;;;;;;1.90;0.40;;;8.60;99.90;;;;;;5031783;28;20041;-81
2023/01/08 04:34:56;;;;;;;1.65;0.30;;;8.50;99.90;;;;;;5022418;28;20030;-83
2023/01/08 04:37:22;;;;;;;2.67;0.80;;;8.60;99.90;;;;;;5017778;28;20040;-79
2023/01/08 04:39:48;;;;;;;2.28;0.30;;;8.50;99.90;;;;;;5030498;28;20037;-83
2023/01/08 04:42:14;;;;;;;4.03;0.40;;;8.60;99.90;;;;;;5033908;28;20048;-80
2023/01/08 04:44:41;;;;;;;3.97;0.50;;;8.50;99.90;;;;;;5023697;28;20400;-81
2023/01/08 04:47:07;;;;;;;3.00;0.40;;;8.50;99.90;;;;;;5032277;28;20033;-81
2023/01/08 04:49:33;;;;;;;4.60;0.50;;;8.50;99.90;;;;;;5019134;28;20045;-82
2023/01/08 04:52:00;;;;;;;1.10;0.22;;;8.60;99.90;;;;;;5024338;28;20131;-82
2023/01/08 04:54:26;;;;;;;1.92;0.50;;;8.60;99.90;;;;;;5022000;28;20048;-81
2023/01/08 04:56:52;;;;;;;2.75;0.43;;;8.60;99.90;;;;;;5014168;28;20044;-82
2023/01/08 04:59:19;;;;;;;3.15;0.30;;;8.60;99.90;;;;;;5035495;28;20451;-82
2023/01/08 05:01:45;;;;;;;2.63;0.47;;;8.60;99.90;;;;;;5028875;28;20484;-81
2023/01/08 05:04:11;;;;;;;3.30;0.50;;;8.60;99.90;;;;;;5024475;28;20139;-80
2023/01/08 05:06:37;;;;;;;2.50;0.50;;;8.70;99.90;;;;;;5023838;28;20160;-81
2023/01/08 05:09:04;;;;;;;2.28;0.30;;;8.60;99.90;;;;;;5028381;28;20519;-80
2023/01/08 05:11:30;;;;;;;3.28;0.38;;;8.70;99.90;;;;;;5030367;28;20029;-84
2023/01/08 05:13:56;;;;;;;1.80;0.40;;;8.70;99.90;;;;;;5017206;28;20041;-81
2023/01/08 05:16:23;;;;;;;1.00;0.30;;;8.70;99.90;;;;;;5033424;28;20037;-79
2023/01/08 05:18:49;;;;;;;3.35;0.40;;;8.70;99.90;;;;;;5027699;28;20049;-81
2023/01/08 05:21:16;;;;;;;5.55;0.50;;;8.60;99.90;;;;;;5002692;28;20404;-80
2023/01/08 05:23:46;;;;;;;2.55;0.50;;;8.60;99.90;;;;;;5005589;28;20041;-80
2023/01/08 05:26:14;;;;;;;3.85;0.50;;;8.60;99.90;;;;;;5028626;28;20044;-81
2023/01/08 05:28:40;;;;;;;1.80;0.30;;;8.60;99.90;;;;;;5015710;28;20044;-81
2023/01/08 05:31:06;;;;;;;3.33;0.40;;;8.60;99.90;;;;;;5029410;28;20045;-80
2023/01/08 05:33:33;;;;;;;3.70;0.32;;;8.60;99.90;;;;;;4990948;28;20551;-83
2023/01/08 05:35:59;;;;;;;1.73;0.40;;;8.60;99.90;;;;;;5027400;28;20037;-79
2023/01/08 05:38:25;;;;;;;3.47;0.40;;;8.60;99.90;;;;;;5027898;28;20037;-81
2023/01/08 05:40:52;;;;;;;2.72;0.50;;;8.60;99.90;;;;;;5030785;28;20042;-82
2023/01/08 05:43:18;;;;;;;4.05;0.47;;;8.60;99.90;;;;;;5013426;28;20044;-80
2023/01/08 05:45:45;;;;;;;4.43;0.50;;;8.50;99.90;;;;;;5009681;28;20033;-83
2023/01/08 05:48:11;;;;;;;3.42;0.40;;;8.60;99.90;;;;;;5031545;28;20394;-81
2023/01/08 05:50:37;;;;;;;4.40;0.40;;;8.50;99.90;;;;;;5030230;28;20049;-84
2023/01/08 05:53:08;;;;;;;3.05;0.50;;;8.60;99.90;;;;;;4997493;28;20049;-79
2023/01/08 05:55:35;;;;;;;3.08;0.68;;;8.50;99.90;;;;;;5015433;28;20048;-81
2023/01/08 05:58:02;;;;;;;5.63;0.60;;;8.50;99.90;;;;;;5008431;28;20034;-82
2023/01/08 06:00:29;;;;;;;2.05;0.60;;;8.50;99.90;;;;;;5030230;28;20055;-78
2023/01/08 06:02:56;;;;;;;1.92;0.40;;;8.50;99.90;;;;;;5038515;28;20389;-76
2023/01/08 06:05:22;;;;;;;2.38;0.40;;;8.50;99.90;;;;;;5030036;28;20036;-81
2023/01/08 06:07:48;;;;;;;4.35;0.40;;;8.50;99.90;;;;;;5029310;28;20049;-83
2023/01/08 06:10:15;;;;;;;2.22;0.50;;;8.50;99.90;;;;;;5014220;28;20045;-81
2023/01/08 06:12:41;;;;;;;3.20;0.50;;;8.50;99.90;;;;;;5041937;28;20045;-82
2023/01/08 06:15:09;;;;;;;3.45;0.60;;;8.50;99.90;;;;;;5020063;28;20052;-80
2023/01/08 06:17:35;;;;;;;5.75;0.60;;;8.50;99.90;;;;;;5006628;28;20033;-80
2023/01/08 06:20:02;;;;;;;1.85;0.60;;;8.50;99.90;;;;;;5044303;28;20040;-82
2023/01/08 06:22:28;;;;;;;4.28;0.50;;;8.50;99.90;;;;;;5023066;28;20407;-83
2023/01/08 06:24:54;;;;;;;3.03;0.50;;;8.50;99.90;;;;;;5024311;28;20048;-83
2023/01/08 06:27:22;;;;;;;2.90;0.50;;;8.50;99.90;;;;;;5030801;28;20161;-78
2023/01/08 06:29:48;;;;;;;3.47;0.60;;;8.50;99.90;;;;;;5033008;28;20052;-82
2023/01/08 06:32:14;;;;;;;1.92;0.38;;;8.40;99.90;;;;;;5031665;28;20052;-82
2023/01/08 06:34:41;;;;;;;3.63;0.50;;;8.40;99.90;;;;;;5002902;28;20036;-82
2023/01/08 06:37:07;;;;;;;2.10;0.50;;;8.30;99.90;;;;;;5026716;28;20524;-81
2023/01/08 06:39:33;;;;;;;2.15;0.40;;;8.30;99.90;;;;;;5027241;28;20039;-82
2023/01/08 06:41:59;;;;;;;3.50;0.55;;;8.20;99.90;;;;;;5031306;28;20063;-84
2023/01/08 06:44:26;;;;;;;2.05;0.65;;;8.10;99.90;;;;;;5022254;28;20033;-84
2023/01/08 06:46:52;;;;;;;1.67;0.40;;;8.00;99.90;;;;;;5014348;28;20041;-81
2023/01/08 06:49:19;;;;;;;2.67;0.30;;;7.90;99.90;;;;;;5005584;28;20033;-82
2023/01/08 06:51:45;;;;;;;2.50;0.40;;;7.80;99.90;;;;;;5026194;28;20049;-86
2023/01/08 06:54:11;;;;;;;1.35;0.38;;;7.80;99.90;;;;;;5008893;28;20591;-80
2023/01/08 06:56:38;;;;;;;1.52;0.40;;;7.70;99.90;;;;;;5013044;28;20394;-80
2023/01/08 06:59:04;;;;;;;1.95;0.45;;;7.70;99.90;;;;;;5031554;28;20041;-80
2023/01/08 07:01:31;;;;;;;1.60;0.50;;;7.60;99.90;;;;;;5036069;28;20033;-83
2023/01/08 07:03:57;;;;;;;3.40;0.50;;;7.60;99.90;;;;;;5024693;28;20530;-80
2023/01/08 07:06:24;;;;;;;2.90;0.47;;;7.50;99.90;;;;;;5042081;28;20428;-82
2023/01/08 07:08:50;;;;;;;5.15;1.02;;;7.40;99.90;;;;;;5029440;28;20385;-85
2023/01/08 07:11:16;;;;;;;5.50;1.40;;;7.40;99.90;;;;;;5036522;28;20400;-83
2023/01/08 07:13:42;;;;;;;5.80;1.30;;;7.40;99.90;;;;;;5002452;28;20053;-80
2023/01/08 07:16:11;;;;;;;3.63;0.82;;;7.40;99.90;;;;;;5029549;28;20032;-80
2023/01/08 07:18:38;;;;;;;3.10;0.65;;;7.30;99.90;;;;;;5023776;28;20060;-83
2023/01/08 07:21:06;;;;;;;3.33;0.43;;;7.30;99.90;;;;;;5036089;28;20043;-82
2023/01/08 07:23:33;;;;;;;2.85;0.40;;;7.30;99.90;;;;;;5023740;28;20550;-82
2023/01/08 07:26:00;;;;;;;2.80;0.68;;;7.30;99.90;;;;;;5040505;28;20029;-82
2023/01/08 07:28:27;;;;;;;3.33;0.43;;;7.20;99.90;;;;;;5030786;28;20786;-80
2023/01/08 07:30:53;;;;;;;4.45;0.50;;;7.20;99.90;;;;;;5026419;28;20046;-80
2023/01/08 07:33:20;;;;;;;4.65;0.90;;;7.20;99.90;;;;;;5023350;28;20048;-83
2023/01/08 07:35:55;;;;;;;3.85;0.70;;;7.20;99.90;;;;;;5010014;28;20507;-78
2023/01/08 07:38:22;;;;;;;3.15;0.50;;;7.10;99.90;;;;;;5013138;28;20041;-82
2023/01/08 07:40:48;;;;;;;4.45;0.60;;;7.10;99.90;;;;;;5026907;28;20037;-83
2023/01/08 07:43:14;;;;;;;6.15;0.88;;;7.10;99.90;;;;;;4994642;28;20037;-77
2023/01/08 07:45:41;;;;;;;2.05;0.75;;;7.10;99.90;;;;;;4993972;28;20489;-84
2023/01/08 07:48:14;;;;;;;3.40;0.50;;;7.00;99.90;;;;;;5004882;28;20045;-82
2023/01/08 07:50:44;;;;;;;6.55;1.40;;;7.10;99.90;;;;;;5009981;28;20052;-83
2023/01/08 07:53:12;;;;;;;6.07;0.70;;;7.00;99.90;;;;;;5026200;28;20036;-78
2023/01/08 07:55:38;;;;;;;2.83;0.57;;;7.00;99.90;;;;;;5017756;28;20052;-83
2023/01/08 07:58:13;;;;;;;7.13;1.50;;;7.00;99.90;;;;;;5034692;28;20037;-83
2023/01/08 08:00:39;;;;;;;4.82;0.68;;;7.00;99.90;;;;;;5044623;28;20040;-83
2023/01/08 08:03:10;;;;;;;3.60;0.60;;;7.10;99.90;;;;;;5027162;28;20042;-82
2023/01/08 08:05:36;;;;;;;4.13;0.50;;;7.10;99.90;;;;;;5016350;28;20037;-83
2023/01/08 08:08:07;;;;;;;1.88;0.45;;;7.00;99.90;;;;;;5012814;28;20049;-78
2023/01/08 08:10:34;;;;;;;2.88;1.15;;;7.00;99.90;;;;;;5033319;28;20056;-83
2023/01/08 08:13:00;;;;;;;5.43;0.60;;;7.00;99.90;;;;;;5013021;28;20053;-84
2023/01/08 08:15:26;;;;;;;3.38;0.55;;;7.00;99.90;;;;;;5010357;28;20033;-83
2023/01/08 08:17:53;;;;;;;8.90;0.90;;;7.00;99.90;;;;;;5028822;28;20535;-82
2023/01/08 08:20:19;;;;;;;6.03;0.95;;;7.00;99.90;;;;;;5030169;28;20484;-83
2023/01/08 08:22:45;;;;;;;6.85;0.70;;;7.00;99.90;;;;;;5032696;28;20152;-82
2023/01/08 08:25:14;;;;;;;5.95;0.90;;;7.00;99.90;;;;;;4992958;28;20037;-82
2023/01/08 08:27:44;;;;;;;6.78;0.70;;;7.00;99.90;;;;;;4998128;28;20506;-82
2023/01/08 08:30:11;;;;;;;9.52;1.10;;;7.10;99.90;;;;;;5032894;28;20052;-84
2023/01/08 08:32:37;;;;;;;4.30;0.70;;;7.10;99.90;;;;;;5034358;28;20044;-81
2023/01/08 08:35:05;;;;;;;5.93;0.60;;;7.10;99.90;;;;;;5004593;28;20396;-79
2023/01/08 08:37:31;;;;;;;6.13;0.70;;;7.10;99.90;;;;;;5021624;28;20040;-81
2023/01/08 08:39:57;;;;;;;5.30;1.10;;;7.10;99.90;;;;;;5037575;28;20636;-81
2023/01/08 08:42:23;;;;;;;5.30;0.52;;;7.10;99.90;;;;;;5039101;28;20032;-82
2023/01/08 08:44:50;;;;;;;8.73;0.80;;;7.20;99.90;;;;;;5006665;28;20040;-81
2023/01/08 08:47:17;;;;;;;5.10;1.00;;;7.20;99.90;;;;;;5014307;28;20033;-80
2023/01/08 08:49:43;;;;;;;6.75;0.70;;;7.20;99.90;;;;;;4996042;28;20041;-81
2023/01/08 08:52:09;;;;;;;4.00;0.70;;;7.30;99.90;;;;;;5030540;28;20056;-82
2023/01/08 08:54:40;;;;;;;7.38;0.90;;;7.30;99.90;;;;;;5024045;28;20049;-81
2023/01/08 08:57:09;;;;;;;9.10;0.90;;;7.30;99.90;;;;;;5031540;28;20038;-81
2023/01/08 08:59:36;;;;;;;4.82;1.25;;;7.40;99.90;;;;;;5033949;28;20341;-81
2023/01/08 09:02:03;;;;;;;5.22;0.93;;;7.40;99.90;;;;;;5038018;28;20399;-83
2023/01/08 09:04:33;;;;;;;9.82;0.93;;;7.50;99.90;;;;;;5025439;28;20037;-80
2023/01/08 09:06:59;;;;;;;5.53;0.60;;;7.60;99.90;;;;;;5014794;28;20048;-80
2023/01/08 09:09:26;;;;;;;9.13;0.93;;;7.60;99.90;;;;;;5029264;28;20033;-81
2023/01/08 09:11:53;;;;;;;8.02;0.80;;;7.60;99.90;;;;;;5032038;28;20056;-79
2023/01/08 09:14:20;;;;;;;7.55;0.60;;;7.70;99.90;;;;;;5011453;28;20484;-80
2023/01/08 09:16:46;;;;;;;6.32;0.80;;;7.80;99.90;;;;;;5035054;28;20445;-81
2023/01/08 09:19:12;;;;;;;5.38;1.13;;;7.80;99.90;;;;;;5030598;28;20543;-81
2023/01/08 09:21:39;;;;;;;4.95;0.50;;;7.80;99.90;;;;;;5031006;28;20033;-82
2023/01/08 09:24:06;;;;;;;4.82;1.30;;;7.90;99.90;;;;;;4991250;28;20041;-80
2023/01/08 09:26:32;;;;;;;4.95;0.70;;;7.90;99.90;;;;;;5040203;28;20064;-81
2023/01/08 09:28:58;;;;;;;6.88;0.93;;;7.90;99.90;;;;;;5035285;28;20045;-82
2023/01/08 09:31:25;;;;;;;7.15;1.25;;;8.00;99.90;;;;;;5032877;28;20045;-81
2023/01/08 09:33:52;;;;;;;8.52;1.40;;;8.00;99.90;;;;;;5022627;28;20511;-83
2023/01/08 09:36:18;;;;;;;11.50;1.65;;;8.00;99.90;;;;;;5029313;28;20033;-78
2023/01/08 09:38:45;;;;;;;8.25;1.35;;;8.00;99.90;;;;;;5029703;28;20126;-79
2023/01/08 09:41:21;;;;;;;8.48;1.50;;;8.00;99.90;;;;;;5030572;28;20068;-79
2023/01/08 09:43:50;;;;;;;9.40;0.90;;;8.10;99.90;;;;;;5034601;28;20050;-82
2023/01/08 09:46:20;;;;;;;5.65;0.80;;;8.20;99.90;;;;;;5026921;28;20033;-81
2023/01/08 09:48:48;;;;;;;8.23;0.80;;;8.30;99.90;;;;;;5027446;28;20037;-79
2023/01/08 09:51:19;;;;;;;7.95;0.95;;;8.40;99.90;;;;;;5008083;28;20451;-81
2023/01/08 09:53:53;;;;;;;8.75;0.80;;;8.40;99.90;;;;;;5021388;28;20068;-81
2023/01/08 09:56:20;;;;;;;4.97;0.80;;;8.40;99.90;;;;;;5016399;28;20400;-80
2023/01/08 09:58:55;;;;;;;8.65;0.60;;;8.30;99.90;;;;;;5024183;28;20415;-82
2023/01/08 10:01:24;;;;;;;9.77;1.38;;;8.30;99.90;;;;;;5035869;28;20025;-80
2023/01/08 10:04:24;;;;;;;6.03;0.82;;;8.30;99.90;;;;;;5023218;28;20033;-82
2023/01/08 10:07:00;;;;;;;6.90;0.90;;;8.20;99.90;;;;;;5016704;28;20045;-80
2023/01/08 10:09:32;;;;;;;6.57;0.93;;;8.10;99.90;;;;;;5028021;28;20030;-82
2023/01/08 10:12:04;;;;;;;11.38;0.98;;;8.10;99.90;;;;;;5013429;28;20044;-81
2023/01/08 10:14:36;;;;;;;7.20;0.93;;;8.00;99.90;;;;;;5019572;28;20492;-80
2023/01/08 10:17:07;;;;;;;8.15;0.70;;;8.20;99.90;;;;;;5038254;28;20055;-77
2023/01/08 10:19:33;;;;;;;4.45;0.50;;;8.50;99.90;;;;;;5026162;28;20411;-82
2023/01/08 10:21:59;;;;;;;7.63;0.75;;;8.80;99.90;;;;;;5018411;28;20033;-82
2023/01/08 10:24:34;;;;;;;9.40;1.27;;;9.10;99.90;;;;;;5006418;28;20081;-78
2023/01/08 10:27:11;;;;;;;13.10;1.15;;;9.30;99.90;;;;;;5033098;28;20479;-82
2023/01/08 10:29:40;;;;;;;5.78;0.60;;;9.40;99.90;;;;;;5026821;28;20030;-82
2023/01/08 10:32:12;;;;;;;6.50;1.00;;;9.50;99.90;;;;;;5027286;28;20033;-82
2023/01/08 10:34:43;;;;;;;6.60;0.68;;;9.40;99.90;;;;;;5018466;28;20048;-82
2023/01/08 10:37:28;;;;;;;6.97;0.70;;;9.30;99.90;;;;;;5026089;28;20026;-83
2023/01/08 10:40:15;;;;;;;5.28;0.95;;;9.30;99.90;;;;;;5032904;28;20539;-84
2023/01/08 10:42:42;;;;;;;5.78;0.80;;;9.20;99.90;;;;;;5022990;28;20026;-80
2023/01/08 10:45:21;;;;;;;6.07;0.85;;;9.20;99.90;;;;;;5017537;28;20029;-79
2023/01/08 10:47:50;;;;;;;8.65;0.95;;;9.10;99.90;;;;;;5024937;28;20048;-79
2023/01/08 10:50:24;;;;;;;6.75;0.80;;;9.10;99.90;;;;;;5027399;28;20041;-83
2023/01/08 10:53:05;;;;;;;6.70;1.13;;;9.10;99.90;;;;;;5021380;28;20496;-81
2023/01/08 10:55:36;;;;;;;9.63;1.23;;;9.00;99.90;;;;;;5008445;28;20029;-79
2023/01/08 10:58:04;;;;;;;5.78;0.82;;;9.00;99.90;;;;;;5030466;28;20032;-81
2023/01/08 11:00:33;;;;;;;8.77;0.85;;;8.90;99.90;;;;;;5027917;28;20045;-82
2023/01/08 11:03:02;;;;;;;7.85;0.80;;;8.90;99.90;;;;;;5011565;28;20025;-77
2023/01/08 11:05:39;;;;;;;8.27;1.70;;;8.90;99.90;;;;;;5006608;28;20048;-81
2023/01/08 11:08:13;;;;;;;7.55;1.45;;;8.90;99.90;;;;;;5028525;28;20033;-83
2023/01/08 11:10:39;;;;;;;5.82;1.05;;;8.90;99.90;;;;;;5015889;28;20037;-83
2023/01/08 11:13:07;;;;;;;4.03;0.75;;;8.90;99.90;;;;;;5030496;28;20048;-78
2023/01/08 11:15:39;;;;;;;7.63;1.35;;;8.90;99.90;;;;;;5025252;28;20033;-80
2023/01/08 11:18:23;;;;;;;6.90;1.07;;;8.90;99.90;;;;;;5029178;28;20045;-81
2023/01/08 11:20:51;;;;;;;5.32;0.75;;;8.80;99.90;;;;;;5038980;28;20036;-84
2023/01/08 11:23:23;;;;;;;4.65;1.05;;;8.80;99.90;;;;;;5026062;28;20038;-80
2023/01/08 11:26:28;;;;;;;7.85;1.10;;;8.80;99.90;;;;;;5040422;28;20044;-83
2023/01/08 11:29:06;;;;;;;4.47;0.80;;;8.80;99.90;;;;;;4966372;28;20053;-79
2023/01/08 11:31:56;;;;;;;7.20;1.23;;;8.80;99.90;;;;;;4966743;28;20422;-83
2023/01/08 11:34:35;;;;;;;5.45;0.95;;;8.70;99.90;;;;;;5007045;28;20056;-83
2023/01/08 11:37:13;;;;;;;5.93;1.10;;;8.70;99.90;;;;;;5030336;28;20252;-79
2023/01/08 11:39:39;;;;;;;4.03;0.75;;;8.70;99.90;;;;;;5024597;28;20400;-83
2023/01/08 11:42:35;;;;;;;9.30;0.85;;;8.70;99.90;;;;;;5033391;28;20025;-85
2023/01/08 11:45:10;;;;;;;4.15;0.98;;;8.70;99.90;;;;;;5021427;28;20041;-78
2023/01/08 11:47:52;;;;;;;5.20;0.80;;;8.80;99.90;;;;;;5013369;28;20496;-81
2023/01/08 11:50:31;;;;;;;7.95;1.02;;;8.90;99.90;;;;;;5040363;28;20033;-81
2023/01/08 11:53:10;;;;;;;6.40;0.73;;;9.10;99.90;;;;;;5015435;28;20052;-78
2023/01/08 11:55:57;;;;;;;3.15;0.65;;;9.10;99.90;;;;;;5031929;28;20030;-83
2023/01/08 11:58:29;;;;;;;6.20;0.60;;;9.10;99.90;;;;;;5029850;28;20480;-82
2023/01/08 12:01:26;;;;;;;4.95;0.47;;;9.10;99.90;;;;;;5034179;28;20049;-80
2023/01/08 12:04:31;;;;;;;5.03;0.80;;;9.00;99.90;;;;;;5007647;28;20621;-81
2023/01/08 12:07:14;;;;;;;2.97;0.60;;;9.00;99.90;;;;;;5031027;28;20036;-80
2023/01/08 12:09:53;;;;;;;;;;;9.00;99.90;;;;;;5000515;28;20029;-82
2023/01/08 12:12:53;;;;;;;2.05;0.40;;;9.00;99.90;;;;;;5034280;28;20280;-81
2023/01/08 12:15:44;;;;;;;2.53;0.50;;;9.00;99.90;;;;;;5014507;28;20045;-80
2023/01/08 12:18:23;;;;;;;3.85;0.50;;;9.00;99.90;;;;;;5030866;28;20053;-82
2023/01/08 12:21:08;;;;;;;2.25;0.70;;;9.00;99.90;;;;;;5042292;28;20043;-82
2023/01/08 12:24:10;;;;;;;4.10;0.60;;;9.00;99.90;;;;;;5034177;28;20037;-81
2023/01/08 12:27:12;;;;;;;1.33;0.52;;;9.00;99.90;;;;;;5020338;28;20497;-82
2023/01/08 12:30:03;;;;;;;4.78;0.50;;;9.10;99.90;;;;;;5031474;28;20049;-82
2023/01/08 12:32:36;;;;;;;1.85;0.40;;;9.10;99.90;;;;;;5020443;28;20420;-81
2023/01/08 12:35:07;;;;;;;2.65;0.50;;;9.10;99.90;;;;;;5022981;28;20034;-81
2023/01/08 12:38:16;;;;;;;1.20;0.40;;;9.10;99.90;;;;;;5032484;28;20037;-83
2023/01/08 12:40:47;;;;;;;2.92;0.95;;;9.20;99.90;;;;;;5000530;28;20042;-85
2023/01/08 12:43:23;;;;;;;4.50;1.50;;;9.30;99.90;;;;;;5037932;28;20044;-80
2023/01/08 12:45:52;;;;;;;3.38;0.45;;;9.40;99.90;;;;;;5030586;28;20068;-82
2023/01/08 12:48:22;;;;;;;1.77;0.50;;;9.40;99.90;;;;;;5028183;28;20041;-83
2023/01/08 12:51:08;;;;;;;1.40;0.60;;;9.50;99.90;;;;;;5039752;28;20037;-83
2023/01/08 12:53:53;;;;;;;1.02;0.40;;;9.50;99.90;;;;;;5026156;28;20049;-81
2023/01/08 12:56:54;;;;;;;0.73;0.38;;;9.70;99.90;;;;;;5025565;28;20298;-83
2023/01/08 12:59:36;;;;;;;1.75;0.30;;;9.80;99.90;;;;;;5012495;28;20042;-80
2023/01/08 13:02:32;;;;;;;7.87;3.33;;;9.90;99.90;;;;;;5003614;28;20037;-84
2023/01/08 13:05:18;;;;;;;10.80;4.10;;;10.00;99.90;;;;;;5005364;28;20291;-85
2023/01/08 13:07:53;;;;;;;3.45;0.90;;;10.20;99.90;;;;;;5035008;28;20045;-82
2023/01/08 13:10:25;;;;;;;3.67;1.67;;;10.20;99.90;;;;;;5029465;28;20034;-83
2023/01/08 13:12:52;;;;;;;7.60;2.50;;;10.30;99.90;;;;;;5030692;28;20029;-82